createdAt,value
2018-02-08T00:00:30.265Z,0.00
2018-02-08T00:02:23.072Z,0.00
2018-02-08T00:03:22.987Z,0.00
2018-02-08T00:05:15.763Z,0.00
2018-02-08T00:06:15.709Z,0.00
2018-02-08T00:08:08.516Z,0.00
2018-02-08T00:09:08.431Z,0.00
2018-02-08T00:11:01.211Z,0.00
2018-02-08T00:12:01.156Z,0.00
2018-02-08T00:13:53.964Z,0.00
2018-02-08T00:14:53.879Z,0.00
2018-02-08T00:16:46.657Z,0.00
2018-02-08T00:17:46.602Z,0.00
2018-02-08T00:19:39.411Z,0.00
2018-02-08T00:20:39.325Z,0.00
2018-02-08T00:22:32.101Z,0.00
2018-02-08T00:23:32.046Z,0.00
2018-02-08T00:25:24.852Z,0.00
2018-02-08T00:26:24.766Z,0.00
2018-02-08T00:28:17.544Z,0.00
2018-02-08T00:29:17.491Z,0.00
2018-02-08T00:31:10.300Z,0.00
2018-02-08T00:32:10.218Z,0.00
2018-02-08T00:34:02.995Z,0.00
2018-02-08T00:35:02.942Z,0.00
2018-02-08T00:36:55.746Z,0.00
2018-02-08T00:37:55.661Z,0.00
2018-02-08T00:39:48.437Z,0.00
2018-02-08T00:40:48.382Z,0.00
2018-02-08T00:42:41.195Z,0.00
2018-02-08T00:43:41.110Z,0.00
2018-02-08T00:45:33.887Z,0.00
2018-02-08T00:46:33.832Z,0.00
2018-02-08T00:48:26.638Z,0.00
2018-02-08T00:49:26.553Z,0.00
2018-02-08T00:51:19.335Z,0.00
2018-02-08T00:52:19.276Z,0.00
2018-02-08T00:54:12.084Z,0.00
2018-02-08T00:55:11.995Z,0.00
2018-02-08T00:57:04.773Z,0.00
2018-02-08T00:58:04.718Z,0.00
2018-02-08T00:59:57.523Z,0.00
2018-02-08T01:00:57.438Z,0.00
2018-02-08T01:02:50.213Z,0.00
2018-02-08T01:03:50.157Z,0.00
2018-02-08T01:05:42.962Z,0.00
2018-02-08T01:06:42.877Z,0.00
2018-02-08T01:08:35.651Z,0.00
2018-02-08T01:09:35.597Z,0.00
2018-02-08T01:11:28.410Z,0.00
2018-02-08T01:12:28.325Z,0.00
2018-02-08T01:14:21.103Z,0.00
2018-02-08T01:15:21.048Z,0.00
2018-02-08T01:17:13.856Z,0.00
2018-02-08T01:18:13.769Z,0.00
2018-02-08T01:20:06.547Z,0.00
2018-02-08T01:21:06.492Z,0.00
2018-02-08T01:22:59.297Z,0.00
2018-02-08T01:23:59.211Z,0.00
2018-02-08T01:25:51.988Z,0.00
2018-02-08T01:26:51.929Z,0.00
2018-02-08T01:28:44.738Z,0.00
2018-02-08T01:29:44.654Z,0.00
2018-02-08T01:31:37.428Z,0.00
2018-02-08T01:32:37.372Z,0.00
2018-02-08T01:34:30.177Z,0.00
2018-02-08T01:35:30.090Z,0.00
2018-02-08T01:37:22.866Z,0.00
2018-02-08T01:38:22.810Z,0.00
2018-02-08T01:40:15.613Z,0.00
2018-02-08T01:41:15.528Z,0.00
2018-02-08T01:43:08.302Z,0.00
2018-02-08T01:44:08.247Z,0.00
2018-02-08T01:46:01.051Z,0.00
2018-02-08T01:47:00.966Z,0.00
2018-02-08T01:48:53.739Z,0.00
2018-02-08T01:49:53.683Z,0.00
2018-02-08T01:51:46.490Z,0.00
2018-02-08T01:52:46.403Z,0.00
2018-02-08T01:54:39.177Z,0.00
2018-02-08T01:55:39.120Z,0.00
2018-02-08T01:57:31.928Z,0.00
2018-02-08T01:58:31.844Z,0.00
2018-02-08T02:00:24.616Z,0.00
2018-02-08T02:01:24.559Z,0.00
2018-02-08T02:03:17.369Z,0.00
2018-02-08T02:04:17.279Z,0.00
2018-02-08T02:06:10.052Z,0.00
2018-02-08T02:07:09.996Z,0.00
2018-02-08T02:09:02.802Z,0.00
2018-02-08T02:10:02.715Z,0.00
2018-02-08T02:11:55.490Z,0.00
2018-02-08T02:12:55.432Z,0.00
2018-02-08T02:14:48.241Z,0.00
2018-02-08T02:15:48.158Z,0.00
2018-02-08T02:17:40.931Z,0.00
2018-02-08T02:18:40.876Z,0.00
2018-02-08T02:20:33.679Z,0.00
2018-02-08T02:21:33.593Z,0.00
2018-02-08T02:23:26.368Z,0.00
2018-02-08T02:24:26.311Z,0.00
2018-02-08T02:26:19.117Z,0.00
2018-02-08T02:27:19.032Z,0.00
2018-02-08T02:29:11.807Z,0.00
2018-02-08T02:30:11.752Z,0.00
2018-02-08T02:32:04.557Z,0.00
2018-02-08T02:33:04.528Z,0.00
2018-02-08T02:34:57.266Z,0.00
2018-02-08T02:35:57.207Z,0.00
2018-02-08T02:37:49.994Z,0.00
2018-02-08T02:38:49.909Z,0.00
2018-02-08T02:40:42.677Z,0.00
2018-02-08T02:41:42.621Z,0.00
2018-02-08T02:43:35.425Z,0.00
2018-02-08T02:44:35.338Z,0.00
2018-02-08T02:46:28.111Z,0.00
2018-02-08T02:47:28.062Z,0.00
2018-02-08T02:49:20.858Z,0.00
2018-02-08T02:50:20.770Z,0.00
2018-02-08T02:52:13.544Z,0.00
2018-02-08T02:53:13.488Z,0.00
2018-02-08T02:55:06.290Z,0.00
2018-02-08T02:56:06.204Z,0.00
2018-02-08T02:57:58.977Z,0.00
2018-02-08T02:58:58.922Z,0.00
2018-02-08T03:00:51.732Z,0.00
2018-02-08T03:01:51.640Z,0.00
2018-02-08T03:03:44.411Z,0.00
2018-02-08T03:04:44.355Z,0.00
2018-02-08T03:06:37.159Z,0.00
2018-02-08T03:07:37.072Z,0.00
2018-02-08T03:09:29.847Z,0.00
2018-02-08T03:10:29.790Z,0.00
2018-02-08T03:12:22.595Z,0.00
2018-02-08T03:13:22.507Z,0.00
2018-02-08T03:15:15.282Z,0.00
2018-02-08T03:16:15.226Z,0.00
2018-02-08T03:18:08.030Z,0.00
2018-02-08T03:19:07.945Z,0.00
2018-02-08T03:21:00.719Z,0.00
2018-02-08T03:22:00.663Z,0.00
2018-02-08T03:23:53.472Z,0.00
2018-02-08T03:24:53.378Z,0.00
2018-02-08T03:26:46.152Z,0.00
2018-02-08T03:27:46.094Z,0.00
2018-02-08T03:29:38.897Z,0.00
2018-02-08T03:30:38.814Z,0.00
2018-02-08T03:32:31.581Z,0.00
2018-02-08T03:33:31.525Z,0.00
2018-02-08T03:35:24.329Z,0.00
2018-02-08T03:36:24.241Z,0.00
2018-02-08T03:38:17.014Z,0.00
2018-02-08T03:39:16.958Z,0.00
2018-02-08T03:41:09.761Z,0.00
2018-02-08T03:42:09.675Z,0.00
2018-02-08T03:44:02.447Z,0.00
2018-02-08T03:45:02.388Z,0.00
2018-02-08T03:46:55.193Z,0.00
2018-02-08T03:47:55.103Z,0.00
2018-02-08T03:49:47.873Z,0.00
2018-02-08T03:50:47.817Z,0.00
2018-02-08T03:52:40.618Z,0.00
2018-02-08T03:53:40.531Z,0.00
2018-02-08T03:55:33.302Z,0.00
2018-02-08T03:56:33.246Z,0.00
2018-02-08T03:58:26.046Z,0.00
2018-02-08T03:59:25.960Z,0.00
2018-02-08T04:01:18.733Z,0.00
2018-02-08T04:02:18.679Z,0.00
2018-02-08T04:04:11.478Z,0.00
2018-02-08T04:05:11.392Z,0.00
2018-02-08T04:07:04.165Z,0.00
2018-02-08T04:08:04.107Z,0.00
2018-02-08T04:09:56.911Z,0.00
2018-02-08T04:10:56.822Z,0.00
2018-02-08T04:12:49.593Z,0.00
2018-02-08T04:13:49.537Z,0.00
2018-02-08T04:15:42.338Z,0.00
2018-02-08T04:16:42.251Z,0.00
2018-02-08T04:18:35.027Z,0.00
2018-02-08T04:19:34.968Z,0.00
2018-02-08T04:21:27.773Z,0.00
2018-02-08T04:22:27.684Z,0.00
2018-02-08T04:24:20.457Z,0.00
2018-02-08T04:25:20.399Z,0.00
2018-02-08T04:27:13.201Z,0.00
2018-02-08T04:28:13.113Z,0.00
2018-02-08T04:30:05.893Z,0.00
2018-02-08T04:31:05.830Z,0.00
2018-02-08T04:32:58.630Z,0.00
2018-02-08T04:33:58.544Z,0.00
2018-02-08T04:35:51.316Z,0.00
2018-02-08T04:36:51.259Z,0.00
2018-02-08T04:38:44.061Z,0.00
2018-02-08T04:39:43.973Z,0.00
2018-02-08T04:41:36.745Z,0.00
2018-02-08T04:42:36.688Z,0.00
2018-02-08T04:44:29.492Z,0.00
2018-02-08T04:45:29.407Z,0.00
2018-02-08T04:47:22.179Z,0.00
2018-02-08T04:48:22.122Z,0.00
2018-02-08T04:50:14.929Z,0.00
2018-02-08T04:51:14.843Z,0.00
2018-02-08T04:53:07.614Z,0.00
2018-02-08T04:54:07.557Z,0.00
2018-02-08T04:56:00.360Z,0.00
2018-02-08T04:57:00.270Z,0.00
2018-02-08T04:58:53.048Z,0.00
2018-02-08T04:59:52.989Z,0.00
2018-02-08T05:01:45.792Z,0.00
2018-02-08T05:02:45.703Z,0.00
2018-02-08T05:04:38.480Z,0.00
2018-02-08T05:05:38.418Z,0.00
2018-02-08T05:07:31.218Z,0.00
2018-02-08T05:08:31.132Z,0.00
2018-02-08T05:10:23.905Z,0.00
2018-02-08T05:11:23.846Z,0.00
2018-02-08T05:13:16.645Z,0.00
2018-02-08T05:14:16.559Z,0.00
2018-02-08T05:16:09.333Z,0.00
2018-02-08T05:17:09.276Z,0.00
2018-02-08T05:19:02.079Z,0.00
2018-02-08T05:20:01.989Z,0.00
2018-02-08T05:21:54.763Z,0.00
2018-02-08T05:22:54.706Z,0.00
2018-02-08T05:24:47.508Z,0.00
2018-02-08T05:25:47.418Z,0.00
2018-02-08T05:27:40.191Z,0.00
2018-02-08T05:28:40.133Z,0.00
2018-02-08T05:30:32.936Z,0.00
2018-02-08T05:31:32.848Z,0.00
2018-02-08T05:33:25.622Z,0.00
2018-02-08T05:34:25.566Z,0.00
2018-02-08T05:36:18.367Z,0.00
2018-02-08T05:37:18.279Z,0.00
2018-02-08T05:39:11.051Z,0.00
2018-02-08T05:40:10.994Z,0.00
2018-02-08T05:42:03.799Z,0.00
2018-02-08T05:43:03.770Z,0.00
2018-02-08T05:44:56.482Z,0.00
2018-02-08T05:45:56.425Z,0.00
2018-02-08T05:47:49.227Z,0.00
2018-02-08T05:48:49.139Z,0.00
2018-02-08T05:50:41.910Z,0.00
2018-02-08T05:51:41.854Z,0.00
2018-02-08T05:53:34.656Z,0.00
2018-02-08T05:54:34.570Z,0.00
2018-02-08T05:56:27.341Z,0.00
2018-02-08T05:57:27.284Z,0.00
2018-02-08T05:59:20.112Z,0.00
2018-02-08T06:00:20.022Z,0.00
2018-02-08T06:02:12.795Z,0.00
2018-02-08T06:03:12.737Z,0.00
2018-02-08T06:05:05.539Z,0.00
2018-02-08T06:06:05.449Z,0.00
2018-02-08T06:07:58.221Z,0.00
2018-02-08T06:08:58.164Z,0.00
2018-02-08T06:10:50.964Z,0.00
2018-02-08T06:11:50.884Z,0.00
2018-02-08T06:13:43.649Z,0.00
2018-02-08T06:14:43.590Z,0.00
2018-02-08T06:16:36.392Z,0.00
2018-02-08T06:17:36.306Z,0.00
2018-02-08T06:19:29.079Z,0.00
2018-02-08T06:20:29.019Z,0.00
2018-02-08T06:22:21.823Z,4.00
2018-02-08T06:23:21.736Z,4.00
2018-02-08T06:25:14.508Z,4.00
2018-02-08T06:26:14.451Z,4.00
2018-02-08T06:28:07.257Z,8.00
2018-02-08T06:29:07.169Z,4.00
2018-02-08T06:30:59.941Z,12.00
2018-02-08T06:31:59.888Z,8.00
2018-02-08T06:33:52.685Z,16.00
2018-02-08T06:34:52.600Z,16.00
2018-02-08T06:36:45.371Z,20.00
2018-02-08T06:37:45.312Z,20.00
2018-02-08T06:39:38.147Z,24.00
2018-02-08T06:40:38.027Z,28.00
2018-02-08T06:42:30.797Z,36.00
2018-02-08T06:43:30.740Z,40.00
2018-02-08T06:45:23.540Z,44.00
2018-02-08T06:46:23.452Z,48.00
2018-02-08T06:48:16.225Z,52.00
2018-02-08T06:49:16.167Z,60.00
2018-02-08T06:51:08.968Z,72.00
2018-02-08T06:52:08.880Z,80.00
2018-02-08T06:54:01.650Z,84.00
2018-02-08T06:55:01.593Z,92.00
2018-02-08T06:56:54.397Z,112.00
2018-02-08T06:57:54.309Z,116.00
2018-02-08T06:59:47.078Z,128.00
2018-02-08T07:00:47.021Z,136.00
2018-02-08T07:02:39.824Z,160.00
2018-02-08T07:03:39.739Z,176.00
2018-02-08T07:05:32.512Z,200.00
2018-02-08T07:06:32.455Z,220.00
2018-02-08T07:08:25.259Z,268.00
2018-02-08T07:09:25.170Z,288.00
2018-02-08T07:11:17.940Z,328.00
2018-02-08T07:12:17.882Z,344.00
2018-02-08T07:14:10.682Z,364.00
2018-02-08T07:15:10.595Z,372.00
2018-02-08T07:17:03.367Z,376.00
2018-02-08T07:18:03.312Z,368.00
2018-02-08T07:19:56.109Z,352.00
2018-02-08T07:20:56.021Z,340.00
2018-02-08T07:22:48.791Z,312.00
2018-02-08T07:23:48.733Z,312.00
2018-02-08T07:25:41.535Z,376.00
2018-02-08T07:26:41.449Z,424.00
2018-02-08T07:28:34.219Z,480.00
2018-02-08T07:29:34.161Z,496.00
2018-02-08T07:31:26.963Z,468.00
2018-02-08T07:32:26.876Z,452.00
2018-02-08T07:34:19.647Z,448.00
2018-02-08T07:35:19.589Z,436.00
2018-02-08T07:37:12.394Z,432.00
2018-02-08T07:38:12.307Z,456.00
2018-02-08T07:40:05.077Z,480.00
2018-02-08T07:41:05.019Z,496.00
2018-02-08T07:42:57.821Z,544.00
2018-02-08T07:43:57.734Z,564.00
2018-02-08T07:45:50.507Z,584.00
2018-02-08T07:46:50.453Z,592.00
2018-02-08T07:48:43.253Z,572.00
2018-02-08T07:49:43.163Z,536.00
2018-02-08T07:51:35.934Z,544.00
2018-02-08T07:52:35.877Z,568.00
2018-02-08T07:54:28.677Z,560.00
2018-02-08T07:55:28.590Z,544.00
2018-02-08T07:57:21.361Z,524.00
2018-02-08T07:58:21.302Z,532.00
2018-02-08T08:00:14.105Z,548.00
2018-02-08T08:01:14.016Z,548.00
2018-02-08T08:03:06.791Z,512.00
2018-02-08T08:04:06.731Z,488.00
2018-02-08T08:05:59.533Z,436.00
2018-02-08T08:06:59.448Z,428.00
2018-02-08T08:08:52.218Z,480.00
2018-02-08T08:09:52.159Z,508.00
2018-02-08T08:11:44.961Z,536.00
2018-02-08T08:12:44.874Z,548.00
2018-02-08T08:14:37.647Z,544.00
2018-02-08T08:15:37.590Z,584.00
2018-02-08T08:17:30.392Z,644.00
2018-02-08T08:18:30.302Z,624.00
2018-02-08T08:20:23.074Z,576.00
2018-02-08T08:21:23.015Z,580.00
2018-02-08T08:23:15.831Z,584.00
2018-02-08T08:24:15.727Z,568.00
2018-02-08T08:26:08.502Z,496.00
2018-02-08T08:27:08.439Z,496.00
2018-02-08T08:29:01.240Z,520.00
2018-02-08T08:30:01.153Z,512.00
2018-02-08T08:31:53.922Z,604.00
2018-02-08T08:32:53.865Z,576.00
2018-02-08T08:34:46.664Z,544.00
2018-02-08T08:35:46.577Z,560.00
2018-02-08T08:37:39.349Z,600.00
2018-02-08T08:38:39.291Z,656.00
2018-02-08T08:40:32.091Z,740.00
2018-02-08T08:41:32.004Z,732.00
2018-02-08T08:43:24.776Z,632.00
2018-02-08T08:44:24.719Z,600.00
2018-02-08T08:46:17.518Z,552.00
2018-02-08T08:47:17.431Z,592.00
2018-02-08T08:49:10.203Z,620.00
2018-02-08T08:50:10.144Z,644.00
2018-02-08T08:52:02.963Z,664.00
2018-02-08T08:53:02.859Z,684.00
2018-02-08T08:54:55.628Z,732.00
2018-02-08T08:55:55.571Z,804.00
2018-02-08T08:57:48.371Z,940.00
2018-02-08T08:58:48.283Z,968.00
2018-02-08T09:00:41.055Z,1008.00
2018-02-08T09:01:40.998Z,956.00
2018-02-08T09:03:33.796Z,840.00
2018-02-08T09:04:33.709Z,780.00
2018-02-08T09:06:26.478Z,712.00
2018-02-08T09:07:26.421Z,676.00
2018-02-08T09:09:19.257Z,612.00
2018-02-08T09:10:19.133Z,584.00
2018-02-08T09:12:11.906Z,564.00
2018-02-08T09:13:11.847Z,556.00
2018-02-08T09:15:04.646Z,572.00
2018-02-08T09:16:04.559Z,596.00
2018-02-08T09:17:57.330Z,644.00
2018-02-08T09:18:57.272Z,660.00
2018-02-08T09:20:50.072Z,652.00
2018-02-08T09:21:49.983Z,644.00
2018-02-08T09:23:42.756Z,664.00
2018-02-08T09:24:42.699Z,680.00
2018-02-08T09:26:35.500Z,688.00
2018-02-08T09:27:35.415Z,668.00
2018-02-08T09:29:28.187Z,608.00
2018-02-08T09:30:28.126Z,596.00
2018-02-08T09:32:20.944Z,608.00
2018-02-08T09:33:20.838Z,620.00
2018-02-08T09:35:13.607Z,628.00
2018-02-08T09:36:13.550Z,636.00
2018-02-08T09:38:06.401Z,660.00
2018-02-08T09:39:06.263Z,688.00
2018-02-08T09:40:59.034Z,732.00
2018-02-08T09:41:58.977Z,752.00
2018-02-08T09:43:51.777Z,784.00
2018-02-08T09:44:51.690Z,784.00
2018-02-08T09:46:44.461Z,768.00
2018-02-08T09:47:44.402Z,784.00
2018-02-08T09:49:37.204Z,808.00
2018-02-08T09:50:37.113Z,776.00
2018-02-08T09:52:29.883Z,748.00
2018-02-08T09:53:29.826Z,760.00
2018-02-08T09:55:22.626Z,808.00
2018-02-08T09:56:22.535Z,808.00
2018-02-08T09:58:15.309Z,768.00
2018-02-08T09:59:15.250Z,756.00
2018-02-08T10:01:08.053Z,764.00
2018-02-08T10:02:07.966Z,780.00
2018-02-08T10:04:00.735Z,828.00
2018-02-08T10:05:00.677Z,852.00
2018-02-08T10:06:53.495Z,932.00
2018-02-08T10:07:53.390Z,980.00
2018-02-08T10:09:46.164Z,1092.00
2018-02-08T10:10:46.106Z,1196.00
2018-02-08T10:12:38.906Z,1336.00
2018-02-08T10:13:38.818Z,1388.00
2018-02-08T10:15:32.084Z,1452.00
2018-02-08T10:16:32.025Z,1516.00
2018-02-08T10:18:24.828Z,1688.00
2018-02-08T10:19:24.738Z,1748.00
2018-02-08T10:21:17.509Z,1708.00
2018-02-08T10:22:17.451Z,1672.00
2018-02-08T10:24:10.252Z,1796.00
2018-02-08T10:25:10.165Z,1936.00
2018-02-08T10:27:02.938Z,1956.00
2018-02-08T10:28:02.882Z,1812.00
2018-02-08T10:29:55.681Z,1624.00
2018-02-08T10:30:55.592Z,1644.00
2018-02-08T10:32:48.365Z,1728.00
2018-02-08T10:33:48.308Z,1840.00
2018-02-08T10:35:41.122Z,2008.00
2018-02-08T10:36:41.019Z,1964.00
2018-02-08T10:38:33.840Z,1808.00
2018-02-08T10:39:33.729Z,1764.00
2018-02-08T10:41:26.532Z,1800.00
2018-02-08T10:42:26.443Z,1928.00
2018-02-08T10:44:19.217Z,1912.00
2018-02-08T10:45:19.156Z,1888.00
2018-02-08T10:47:11.958Z,1888.00
2018-02-08T10:48:11.869Z,1832.00
2018-02-08T10:50:04.695Z,1760.00
2018-02-08T10:51:04.584Z,1840.00
2018-02-08T10:52:57.382Z,2108.00
2018-02-08T10:53:57.299Z,2136.00
2018-02-08T10:55:50.063Z,2044.00
2018-02-08T10:56:50.006Z,2044.00
2018-02-08T10:58:42.821Z,2280.00
2018-02-08T10:59:42.717Z,2304.00
2018-02-08T11:01:35.487Z,2184.00
2018-02-08T11:02:35.430Z,2188.00
2018-02-08T11:04:28.231Z,2112.00
2018-02-08T11:05:28.143Z,2016.00
2018-02-08T11:07:20.913Z,2116.00
2018-02-08T11:08:20.856Z,2156.00
2018-02-08T11:10:13.657Z,2300.00
2018-02-08T11:11:13.572Z,2360.00
2018-02-08T11:13:06.341Z,2472.00
2018-02-08T11:14:06.283Z,2608.00
2018-02-08T11:15:59.081Z,2596.00
2018-02-08T11:16:58.993Z,2540.00
2018-02-08T11:18:51.763Z,2760.00
2018-02-08T11:19:51.706Z,2880.00
2018-02-08T11:21:44.523Z,2832.00
2018-02-08T11:22:44.419Z,2656.00
2018-02-08T11:24:37.186Z,2576.00
2018-02-08T11:25:37.129Z,2632.00
2018-02-08T11:27:29.931Z,2580.00
2018-02-08T11:28:29.844Z,2600.00
2018-02-08T11:30:22.613Z,2668.00
2018-02-08T11:31:22.555Z,2684.00
2018-02-08T11:33:15.354Z,2612.00
2018-02-08T11:34:15.266Z,2564.00
2018-02-08T11:36:08.037Z,2112.00
2018-02-08T11:37:07.977Z,1936.00
2018-02-08T11:39:00.780Z,1584.00
2018-02-08T11:40:00.690Z,1540.00
2018-02-08T11:41:53.461Z,1432.00
2018-02-08T11:42:53.407Z,1344.00
2018-02-08T11:44:46.225Z,1220.00
2018-02-08T11:45:46.118Z,1252.00
2018-02-08T11:47:38.887Z,1324.00
2018-02-08T11:48:38.830Z,1384.00
2018-02-08T11:50:31.630Z,1500.00
2018-02-08T11:51:31.544Z,1632.00
2018-02-08T11:53:24.313Z,1812.00
2018-02-08T11:54:24.255Z,1940.00
2018-02-08T11:56:17.063Z,2072.00
2018-02-08T11:57:16.970Z,2124.00
2018-02-08T11:59:09.741Z,2316.00
2018-02-08T12:00:09.683Z,2512.00
2018-02-08T12:02:02.499Z,2852.00
2018-02-08T12:03:02.394Z,2804.00
2018-02-08T12:04:55.163Z,2520.00
2018-02-08T12:05:55.105Z,2416.00
2018-02-08T12:07:47.907Z,2288.00
2018-02-08T12:08:47.819Z,2356.00
2018-02-08T12:10:40.588Z,2664.00
2018-02-08T12:11:40.529Z,2600.00
2018-02-08T12:13:33.347Z,2668.00
2018-02-08T12:14:33.242Z,2532.00
2018-02-08T12:16:26.010Z,2092.00
2018-02-08T12:17:25.953Z,1908.00
2018-02-08T12:19:18.752Z,1916.00
2018-02-08T12:20:18.664Z,1984.00
2018-02-08T12:22:11.436Z,2268.00
2018-02-08T12:23:11.380Z,2376.00
2018-02-08T12:25:04.180Z,2612.00
2018-02-08T12:26:04.094Z,2528.00
2018-02-08T12:27:56.866Z,2396.00
2018-02-08T12:28:56.808Z,2536.00
2018-02-08T12:30:49.609Z,2444.00
2018-02-08T12:31:49.522Z,2476.00
2018-02-08T12:33:42.290Z,2596.00
2018-02-08T12:34:42.233Z,2696.00
2018-02-08T12:36:35.042Z,2848.00
2018-02-08T12:37:34.953Z,2968.00
2018-02-08T12:39:27.723Z,2984.00
2018-02-08T12:40:27.666Z,2972.00
2018-02-08T12:42:20.467Z,2932.00
2018-02-08T12:43:20.378Z,2860.00
2018-02-08T12:45:13.148Z,2864.00
2018-02-08T12:46:13.089Z,2836.00
2018-02-08T12:48:05.895Z,2784.00
2018-02-08T12:49:05.803Z,2768.00
2018-02-08T12:50:58.572Z,2712.00
2018-02-08T12:51:58.516Z,2668.00
2018-02-08T12:53:51.316Z,2644.00
2018-02-08T12:54:51.227Z,2628.00
2018-02-08T12:56:44.000Z,2560.00
2018-02-08T12:57:43.939Z,2512.00
2018-02-08T12:59:36.745Z,2376.00
2018-02-08T13:00:36.652Z,2352.00
2018-02-08T13:02:29.421Z,2360.00
2018-02-08T13:03:29.364Z,2344.00
2018-02-08T13:05:22.164Z,2296.00
2018-02-08T13:06:22.077Z,2288.00
2018-02-08T13:08:14.846Z,2256.00
2018-02-08T13:09:14.788Z,2244.00
2018-02-08T13:11:07.608Z,2212.00
2018-02-08T13:12:07.503Z,2184.00
2018-02-08T13:14:00.275Z,2108.00
2018-02-08T13:15:00.219Z,2064.00
2018-02-08T13:16:53.024Z,1988.00
2018-02-08T13:17:52.935Z,1964.00
2018-02-08T13:19:45.707Z,1916.00
2018-02-08T13:20:45.652Z,1936.00
2018-02-08T13:22:38.451Z,1948.00
2018-02-08T13:23:38.362Z,1940.00
2018-02-08T13:25:31.133Z,1900.00
2018-02-08T13:26:31.076Z,1864.00
2018-02-08T13:28:23.876Z,1836.00
2018-02-08T13:29:23.788Z,1800.00
2018-02-08T13:31:16.563Z,1776.00
2018-02-08T13:32:16.506Z,1760.00
2018-02-08T13:34:09.306Z,1744.00
2018-02-08T13:35:09.219Z,1728.00
2018-02-08T13:37:01.990Z,1684.00
2018-02-08T13:38:01.932Z,1668.00
2018-02-08T13:39:54.737Z,1636.00
2018-02-08T13:40:54.651Z,1612.00
2018-02-08T13:42:47.422Z,1416.00
2018-02-08T13:43:47.363Z,1424.00
2018-02-08T13:45:40.181Z,1300.00
2018-02-08T13:46:40.076Z,1328.00
2018-02-08T13:48:32.848Z,1396.00
2018-02-08T13:49:32.790Z,1412.00
2018-02-08T13:51:25.594Z,1340.00
2018-02-08T13:52:25.508Z,1336.00
2018-02-08T13:54:18.277Z,1324.00
2018-02-08T13:55:18.218Z,1324.00
2018-02-08T13:57:11.022Z,1312.00
2018-02-08T13:58:10.937Z,1304.00
2018-02-08T14:00:03.708Z,1320.00
2018-02-08T14:01:03.649Z,1324.00
2018-02-08T14:02:56.501Z,1308.00
2018-02-08T14:03:56.362Z,1296.00
2018-02-08T14:05:49.133Z,1248.00
2018-02-08T14:06:49.074Z,1232.00
2018-02-08T14:08:41.877Z,1212.00
2018-02-08T14:09:41.796Z,1188.00
2018-02-08T14:11:34.563Z,1172.00
2018-02-08T14:12:34.507Z,1168.00
2018-02-08T14:14:27.310Z,1148.00
2018-02-08T14:15:27.218Z,1136.00
2018-02-08T14:17:19.993Z,1096.00
2018-02-08T14:18:19.933Z,1076.00
2018-02-08T14:20:12.734Z,1064.00
2018-02-08T14:21:12.645Z,1068.00
2018-02-08T14:23:05.415Z,1044.00
2018-02-08T14:24:05.358Z,1036.00
2018-02-08T14:25:58.160Z,1016.00
2018-02-08T14:26:58.071Z,1012.00
2018-02-08T14:28:50.842Z,992.00
2018-02-08T14:29:50.785Z,976.00
2018-02-08T14:31:43.588Z,968.00
2018-02-08T14:32:43.501Z,964.00
2018-02-08T14:34:36.271Z,956.00
2018-02-08T14:35:36.213Z,956.00
2018-02-08T14:37:29.022Z,940.00
2018-02-08T14:38:28.929Z,932.00
2018-02-08T14:40:21.702Z,912.00
2018-02-08T14:41:21.644Z,896.00
2018-02-08T14:43:14.444Z,872.00
2018-02-08T14:44:14.356Z,856.00
2018-02-08T14:46:07.177Z,832.00
2018-02-08T14:47:07.070Z,820.00
2018-02-08T14:48:59.871Z,796.00
2018-02-08T14:49:59.783Z,788.00
2018-02-08T14:51:52.554Z,772.00
2018-02-08T14:52:52.497Z,764.00
2018-02-08T14:54:45.297Z,748.00
2018-02-08T14:55:45.210Z,740.00
2018-02-08T14:57:37.981Z,720.00
2018-02-08T14:58:37.923Z,708.00
2018-02-08T15:00:30.744Z,696.00
2018-02-08T15:01:30.636Z,688.00
2018-02-08T15:03:23.408Z,676.00
2018-02-08T15:04:23.350Z,668.00
2018-02-08T15:06:16.153Z,648.00
2018-02-08T15:07:16.065Z,640.00
2018-02-08T15:09:08.834Z,624.00
2018-02-08T15:10:08.776Z,616.00
2018-02-08T15:12:01.576Z,600.00
2018-02-08T15:13:01.488Z,596.00
2018-02-08T15:14:54.258Z,584.00
2018-02-08T15:15:54.200Z,576.00
2018-02-08T15:17:47.016Z,556.00
2018-02-08T15:18:46.910Z,552.00
2018-02-08T15:20:39.681Z,532.00
2018-02-08T15:21:39.623Z,524.00
2018-02-08T15:23:32.423Z,508.00
2018-02-08T15:24:32.336Z,500.00
2018-02-08T15:26:25.105Z,480.00
2018-02-08T15:27:25.047Z,472.00
2018-02-08T15:29:17.855Z,460.00
2018-02-08T15:30:17.765Z,452.00
2018-02-08T15:32:10.533Z,436.00
2018-02-08T15:33:10.475Z,432.00
2018-02-08T15:35:03.279Z,416.00
2018-02-08T15:36:03.186Z,408.00
2018-02-08T15:37:55.954Z,388.00
2018-02-08T15:38:55.900Z,372.00
2018-02-08T15:40:48.697Z,348.00
2018-02-08T15:41:48.609Z,336.00
2018-02-08T15:43:41.379Z,292.00
2018-02-08T15:44:41.321Z,280.00
2018-02-08T15:46:34.142Z,276.00
2018-02-08T15:47:34.036Z,272.00
2018-02-08T15:49:26.801Z,272.00
2018-02-08T15:50:26.743Z,268.00
2018-02-08T15:52:19.545Z,256.00
2018-02-08T15:53:19.455Z,252.00
2018-02-08T15:55:12.223Z,232.00
2018-02-08T15:56:12.167Z,220.00
2018-02-08T15:58:04.967Z,204.00
2018-02-08T15:59:04.878Z,196.00
2018-02-08T16:00:57.650Z,184.00
2018-02-08T16:01:57.591Z,176.00
2018-02-08T16:03:50.393Z,168.00
2018-02-08T16:04:50.302Z,160.00
2018-02-08T16:06:43.072Z,148.00
2018-02-08T16:07:43.016Z,144.00
2018-02-08T16:09:35.816Z,136.00
2018-02-08T16:10:35.728Z,128.00
2018-02-08T16:12:28.491Z,116.00
2018-02-08T16:13:28.433Z,108.00
2018-02-08T16:15:21.236Z,100.00
2018-02-08T16:16:21.143Z,92.00
2018-02-08T16:18:13.913Z,80.00
2018-02-08T16:19:13.854Z,76.00
2018-02-08T16:21:06.657Z,68.00
2018-02-08T16:22:06.567Z,64.00
2018-02-08T16:23:59.336Z,56.00
2018-02-08T16:24:59.278Z,48.00
2018-02-08T16:26:52.078Z,40.00
2018-02-08T16:27:51.990Z,40.00
2018-02-08T16:29:44.756Z,32.00
2018-02-08T16:30:44.700Z,32.00
2018-02-08T16:32:37.499Z,24.00
2018-02-08T16:33:37.410Z,24.00
2018-02-08T16:35:30.182Z,16.00
2018-02-08T16:36:30.119Z,16.00
2018-02-08T16:38:22.926Z,12.00
2018-02-08T16:39:22.833Z,12.00
2018-02-08T16:41:15.602Z,8.00
2018-02-08T16:42:15.543Z,8.00
2018-02-08T16:44:08.345Z,8.00
2018-02-08T16:45:08.255Z,4.00
2018-02-08T16:47:01.025Z,4.00
2018-02-08T16:48:00.969Z,4.00
2018-02-08T16:49:53.888Z,0.00
2018-02-08T16:50:53.678Z,4.00
2018-02-08T16:52:46.446Z,0.00
2018-02-08T16:53:46.394Z,0.00
2018-02-08T16:55:39.186Z,0.00
2018-02-08T16:56:39.146Z,0.00
2018-02-08T16:58:31.866Z,0.00
2018-02-08T16:59:31.809Z,0.00
2018-02-08T17:01:24.609Z,0.00
2018-02-08T17:02:24.522Z,0.00
2018-02-08T17:04:17.293Z,0.00
2018-02-08T17:05:17.233Z,0.00
2018-02-08T17:07:10.033Z,0.00
2018-02-08T17:08:09.944Z,0.00
2018-02-08T17:10:02.718Z,0.00
2018-02-08T17:11:02.660Z,0.00
2018-02-08T17:12:55.464Z,0.00
2018-02-08T17:13:55.371Z,0.00
2018-02-08T17:15:48.163Z,0.00
2018-02-08T17:16:48.078Z,0.00
2018-02-08T17:18:40.879Z,0.00
2018-02-08T17:19:40.791Z,0.00
2018-02-08T17:21:33.560Z,0.00
2018-02-08T17:22:33.502Z,0.00
2018-02-08T17:24:26.302Z,0.00
2018-02-08T17:25:26.213Z,0.00
2018-02-08T17:27:18.982Z,0.00
2018-02-08T17:28:18.924Z,0.00
2018-02-08T17:30:11.725Z,0.00
2018-02-08T17:31:11.635Z,0.00
2018-02-08T17:33:04.403Z,0.00
2018-02-08T17:34:04.345Z,0.00
2018-02-08T17:35:57.144Z,0.00
2018-02-08T17:36:57.055Z,0.00
2018-02-08T17:38:49.826Z,0.00
2018-02-08T17:39:49.765Z,0.00
2018-02-08T17:41:42.564Z,0.00
2018-02-08T17:42:42.478Z,0.00
2018-02-08T17:44:35.248Z,0.00
2018-02-08T17:45:35.185Z,0.00
2018-02-08T17:47:27.984Z,0.00
2018-02-08T17:48:27.896Z,0.00
2018-02-08T17:50:20.665Z,0.00
2018-02-08T17:51:20.607Z,0.00
2018-02-08T17:53:13.406Z,0.00
2018-02-08T17:54:13.316Z,0.00
2018-02-08T17:56:06.084Z,0.00
2018-02-08T17:57:06.025Z,0.00
2018-02-08T17:58:58.824Z,0.00
2018-02-08T17:59:58.733Z,0.00
2018-02-08T18:01:51.504Z,0.00
2018-02-08T18:02:51.447Z,0.00
2018-02-08T18:04:44.246Z,0.00
2018-02-08T18:05:44.158Z,0.00
2018-02-08T18:07:36.927Z,0.00
2018-02-08T18:08:36.868Z,0.00
2018-02-08T18:10:29.670Z,132.00
2018-02-08T18:11:29.579Z,132.00
2018-02-08T18:13:22.347Z,128.00
2018-02-08T18:14:22.288Z,128.00
2018-02-08T18:16:15.088Z,0.00
2018-02-08T18:17:14.996Z,0.00
2018-02-08T18:19:07.769Z,0.00
2018-02-08T18:20:07.709Z,0.00
2018-02-08T18:22:00.508Z,0.00